Junius, South Dakota
Current Conditions -  °F | °C
As of 8:55 PM on Wednesday 22 Oct 2014 (Local Time) from KMDS Reporting Station
Overcast Overcast  
Wind Chill: 54°   Ceiling: 500
Heat Index: 54°   Visibility: 10mi
Dew Point: 54°   Wind: 7mph
Humidity: 100%   Direction: 270°W
Pressure: 30"   Gusts: NA
Location:  43.9866°N, 97.1364°W
Report Text: KMDS 230155Z AUTO 27006KT 10SM BKN005 OVC011 12/12 A3000 RMK AO2
Loading
Personal Weather Stations






























Interactive Weather Map New forecast layout! Learn more

10-Day Weather Forecast

Advertisements
Track Severe Weather on mobile